createdAt,value
2017-09-05T00:00:22.628Z,0
2017-09-05T00:01:31.893Z,0
2017-09-05T00:02:41.496Z,0
2017-09-05T00:03:50.777Z,0
2017-09-05T00:04:59.430Z,0
2017-09-05T00:06:08.393Z,0
2017-09-05T00:07:17.660Z,0
2017-09-05T00:08:26.937Z,0
2017-09-05T00:09:35.902Z,0
2017-09-05T00:10:44.581Z,0
2017-09-05T00:11:53.252Z,0
2017-09-05T00:13:02.063Z,0
2017-09-05T00:14:11.025Z,0
2017-09-05T00:15:20.614Z,0
2017-09-05T00:16:29.580Z,0
2017-09-05T00:17:38.546Z,0
2017-09-05T00:18:47.661Z,0
2017-09-05T00:19:56.678Z,0
2017-09-05T00:21:05.957Z,0
2017-09-05T00:22:14.937Z,0
2017-09-05T00:23:24.208Z,0
2017-09-05T00:24:33.321Z,0
2017-09-05T00:25:42.288Z,0
2017-09-05T00:26:50.944Z,0
2017-09-05T00:27:59.902Z,0
2017-09-05T00:29:08.547Z,0
2017-09-05T00:30:17.201Z,0
2017-09-05T00:31:25.848Z,0
2017-09-05T00:32:34.510Z,0
2017-09-05T00:33:44.411Z,0
2017-09-05T00:34:53.068Z,0
2017-09-05T00:36:01.712Z,0
2017-09-05T00:37:10.682Z,0
2017-09-05T00:38:19.664Z,0
2017-09-05T00:39:28.934Z,0
2017-09-05T00:40:37.911Z,0
2017-09-05T00:41:46.598Z,0
2017-09-05T00:42:55.578Z,0
2017-09-05T00:44:04.225Z,0
2017-09-05T00:45:13.492Z,0
2017-09-05T00:46:22.133Z,0
2017-09-05T00:47:31.455Z,0
2017-09-05T00:48:40.738Z,0
2017-09-05T00:49:49.385Z,0
2017-09-05T00:50:58.665Z,0
2017-09-05T00:52:07.330Z,0
2017-09-05T00:53:16.342Z,0
2017-09-05T00:54:25.332Z,0
2017-09-05T00:55:34.610Z,0
2017-09-05T00:56:43.890Z,0
2017-09-05T00:57:52.857Z,0
2017-09-05T00:59:02.590Z,0
2017-09-05T01:00:11.876Z,0
2017-09-05T01:01:20.526Z,0
2017-09-05T01:02:29.798Z,0
2017-09-05T01:03:38.443Z,0
2017-09-05T01:04:47.835Z,0
2017-09-05T01:05:56.496Z,0
2017-09-05T01:07:05.461Z,0
2017-09-05T01:08:15.083Z,0
2017-09-05T01:09:24.683Z,0
2017-09-05T01:10:34.375Z,0
2017-09-05T01:11:43.656Z,0
2017-09-05T01:12:52.948Z,0
2017-09-05T01:14:02.233Z,0
2017-09-05T01:15:11.506Z,0
2017-09-05T01:16:20.466Z,0
2017-09-05T01:17:29.448Z,0
2017-09-05T01:18:38.423Z,0
2017-09-05T01:19:47.381Z,0
2017-09-05T01:20:56.359Z,0
2017-09-05T01:22:05.736Z,0
2017-09-05T01:23:14.699Z,0
2017-09-05T01:24:23.974Z,0
2017-09-05T01:25:32.622Z,0
2017-09-05T01:26:42.208Z,0
2017-09-05T01:27:51.326Z,0
2017-09-05T01:28:59.978Z,0
2017-09-05T01:30:08.650Z,0
2017-09-05T01:31:17.269Z,0
2017-09-05T01:32:26.553Z,0
2017-09-05T01:33:35.525Z,0
2017-09-05T01:34:44.163Z,0
2017-09-05T01:35:52.820Z,0
2017-09-05T01:37:01.791Z,0
2017-09-05T01:38:11.071Z,0
2017-09-05T01:39:20.080Z,0
2017-09-05T01:40:29.363Z,0
2017-09-05T01:41:38.326Z,0
2017-09-05T01:42:47.626Z,0
2017-09-05T01:43:56.582Z,0
2017-09-05T01:45:05.643Z,0
2017-09-05T01:46:14.924Z,0
2017-09-05T01:47:23.585Z,0
2017-09-05T01:48:32.557Z,0
2017-09-05T01:49:42.190Z,0
2017-09-05T01:50:51.931Z,0
2017-09-05T01:52:00.587Z,0
2017-09-05T01:53:09.550Z,0
2017-09-05T01:54:19.157Z,0
2017-09-05T01:55:28.136Z,0
2017-09-05T01:56:37.423Z,0
2017-09-05T01:57:46.390Z,0
2017-09-05T01:58:55.665Z,0
2017-09-05T02:00:04.625Z,0
2017-09-05T02:01:13.903Z,0
2017-09-05T02:02:23.281Z,0
2017-09-05T02:03:32.247Z,0
2017-09-05T02:04:41.213Z,0
2017-09-05T02:05:49.895Z,0
2017-09-05T02:06:58.885Z,0
2017-09-05T02:08:08.330Z,0
2017-09-05T02:09:17.282Z,0
2017-09-05T02:10:26.875Z,0
2017-09-05T02:11:36.173Z,0
2017-09-05T02:12:45.446Z,0
2017-09-05T02:13:54.726Z,0
2017-09-05T02:15:04.327Z,0
2017-09-05T02:16:12.973Z,0
2017-09-05T02:17:21.948Z,0
2017-09-05T02:18:30.600Z,0
2017-09-05T02:19:39.342Z,0
2017-09-05T02:20:47.990Z,0
2017-09-05T02:21:56.640Z,0
2017-09-05T02:23:05.289Z,0
2017-09-05T02:24:14.249Z,0
2017-09-05T02:25:23.262Z,0
2017-09-05T02:26:32.221Z,0
2017-09-05T02:27:41.495Z,0
2017-09-05T02:28:51.405Z,0
2017-09-05T02:30:00.688Z,0
2017-09-05T02:31:09.749Z,0
2017-09-05T02:32:18.723Z,0
2017-09-05T02:33:28.012Z,0
2017-09-05T02:34:36.974Z,0
2017-09-05T02:35:45.957Z,0
2017-09-05T02:36:55.018Z,0
2017-09-05T02:38:03.674Z,0
2017-09-05T02:39:12.951Z,0
2017-09-05T02:40:21.913Z,0
2017-09-05T02:41:31.204Z,0
2017-09-05T02:42:40.896Z,0
2017-09-05T02:43:49.851Z,0
2017-09-05T02:44:58.820Z,0
2017-09-05T02:46:07.499Z,0
2017-09-05T02:47:16.469Z,0
2017-09-05T02:48:25.815Z,0
2017-09-05T02:49:34.774Z,0
2017-09-05T02:50:44.372Z,0
2017-09-05T02:51:53.372Z,0
2017-09-05T02:53:01.989Z,0
2017-09-05T02:54:11.775Z,0
2017-09-05T02:55:21.372Z,0
2017-09-05T02:56:30.028Z,0
2017-09-05T02:57:38.992Z,0
2017-09-05T02:58:48.285Z,0
2017-09-05T02:59:57.019Z,0
2017-09-05T03:01:06.603Z,0
2017-09-05T03:02:15.566Z,0
2017-09-05T03:03:24.830Z,0
2017-09-05T03:04:33.787Z,0
2017-09-05T03:05:43.485Z,0
2017-09-05T03:06:52.449Z,0
2017-09-05T03:08:01.101Z,0
2017-09-05T03:09:10.391Z,0
2017-09-05T03:10:19.354Z,0
2017-09-05T03:11:28.744Z,0
2017-09-05T03:12:38.019Z,0
2017-09-05T03:13:46.670Z,0
2017-09-05T03:14:55.648Z,0
2017-09-05T03:16:04.924Z,0
2017-09-05T03:17:14.634Z,0
2017-09-05T03:18:24.213Z,0
2017-09-05T03:19:32.860Z,0
2017-09-05T03:20:41.514Z,0
2017-09-05T03:21:50.783Z,0
2017-09-05T03:22:59.893Z,0
2017-09-05T03:24:08.853Z,0
2017-09-05T03:25:17.490Z,0
2017-09-05T03:26:27.083Z,0
2017-09-05T03:27:36.041Z,0
2017-09-05T03:28:44.684Z,0
2017-09-05T03:29:53.651Z,0
2017-09-05T03:31:03.244Z,0
2017-09-05T03:32:12.887Z,0
2017-09-05T03:33:21.853Z,0
2017-09-05T03:34:30.495Z,0
2017-09-05T03:35:39.466Z,0
2017-09-05T03:36:49.052Z,0
2017-09-05T03:37:58.021Z,0
2017-09-05T03:39:06.666Z,0
2017-09-05T03:40:15.326Z,0
2017-09-05T03:41:23.986Z,0
2017-09-05T03:42:32.954Z,0
2017-09-05T03:43:42.538Z,0
2017-09-05T03:44:51.196Z,0
2017-09-05T03:46:00.222Z,0
2017-09-05T03:47:09.522Z,0
2017-09-05T03:48:18.166Z,0
2017-09-05T03:49:27.128Z,0
2017-09-05T03:50:36.409Z,0
2017-09-05T03:51:45.535Z,0
2017-09-05T03:52:54.812Z,0
2017-09-05T03:54:04.084Z,0
2017-09-05T03:55:13.049Z,0
2017-09-05T03:56:22.009Z,0
2017-09-05T03:57:31.012Z,0
2017-09-05T03:58:39.657Z,0
2017-09-05T03:59:49.249Z,0
2017-09-05T04:00:58.552Z,0
2017-09-05T04:02:07.508Z,0
2017-09-05T04:03:16.925Z,0
2017-09-05T04:04:26.224Z,0
2017-09-05T04:05:35.222Z,0
2017-09-05T04:06:44.187Z,0
2017-09-05T04:07:53.157Z,0
2017-09-05T04:09:02.315Z,0
2017-09-05T04:10:11.583Z,0
2017-09-05T04:11:20.233Z,0
2017-09-05T04:12:29.202Z,0
2017-09-05T04:13:38.181Z,0
2017-09-05T04:14:46.918Z,0
2017-09-05T04:15:55.558Z,0
2017-09-05T04:17:04.295Z,0
2017-09-05T04:18:13.305Z,0
2017-09-05T04:19:22.574Z,0
2017-09-05T04:20:31.369Z,0
2017-09-05T04:21:40.962Z,0
2017-09-05T04:22:50.236Z,0
2017-09-05T04:23:58.894Z,0
2017-09-05T04:25:08.311Z,0
2017-09-05T04:26:17.699Z,0
2017-09-05T04:27:26.667Z,0
2017-09-05T04:28:36.041Z,0
2017-09-05T04:29:45.338Z,0
2017-09-05T04:30:54.653Z,0
2017-09-05T04:32:03.444Z,0
2017-09-05T04:33:12.756Z,0
2017-09-05T04:34:21.448Z,0
2017-09-05T04:35:30.119Z,0
2017-09-05T04:36:39.139Z,4
2017-09-05T04:37:47.954Z,4
2017-09-05T04:38:56.917Z,4
2017-09-05T04:40:05.559Z,0
2017-09-05T04:41:14.542Z,4
2017-09-05T04:42:23.821Z,4
2017-09-05T04:43:33.207Z,4
2017-09-05T04:44:42.170Z,8
2017-09-05T04:45:50.826Z,4
2017-09-05T04:46:59.490Z,8
2017-09-05T04:48:08.141Z,8
2017-09-05T04:49:18.049Z,8
2017-09-05T04:50:27.338Z,12
2017-09-05T04:51:36.003Z,12
2017-09-05T04:52:44.647Z,16
2017-09-05T04:53:53.333Z,16
2017-09-05T04:55:02.847Z,16
2017-09-05T04:56:12.127Z,16
2017-09-05T04:57:20.769Z,24
2017-09-05T04:58:29.423Z,24
2017-09-05T04:59:38.703Z,24
2017-09-05T05:00:47.703Z,32
2017-09-05T05:01:56.983Z,36
2017-09-05T05:03:06.580Z,36
2017-09-05T05:04:15.560Z,36
2017-09-05T05:05:24.519Z,40
2017-09-05T05:06:33.633Z,48
2017-09-05T05:07:42.590Z,56
2017-09-05T05:08:51.539Z,60
2017-09-05T05:10:00.211Z,72
2017-09-05T05:11:09.212Z,92
2017-09-05T05:12:18.495Z,104
2017-09-05T05:13:27.515Z,104
2017-09-05T05:14:37.499Z,104
2017-09-05T05:15:46.367Z,104
2017-09-05T05:16:55.331Z,108
2017-09-05T05:18:04.656Z,112
2017-09-05T05:19:13.321Z,124
2017-09-05T05:20:22.289Z,144
2017-09-05T05:21:31.904Z,164
2017-09-05T05:22:40.862Z,176
2017-09-05T05:23:50.363Z,192
2017-09-05T05:25:00.130Z,212
2017-09-05T05:26:09.524Z,228
2017-09-05T05:27:18.499Z,260
2017-09-05T05:28:28.083Z,244
2017-09-05T05:29:37.112Z,232
2017-09-05T05:30:45.762Z,236
2017-09-05T05:31:55.344Z,240
2017-09-05T05:33:04.627Z,248
2017-09-05T05:34:14.224Z,272
2017-09-05T05:35:22.990Z,292
2017-09-05T05:36:31.981Z,332
2017-09-05T05:37:41.347Z,340
2017-09-05T05:38:50.649Z,344
2017-09-05T05:40:00.391Z,336
2017-09-05T05:41:09.374Z,368
2017-09-05T05:42:18.891Z,396
2017-09-05T05:43:27.948Z,420
2017-09-05T05:44:38.495Z,424
2017-09-05T05:45:48.400Z,432
2017-09-05T05:46:57.504Z,444
2017-09-05T05:48:06.934Z,468
2017-09-05T05:49:15.904Z,512
2017-09-05T05:50:24.556Z,524
2017-09-05T05:51:33.639Z,500
2017-09-05T05:52:43.445Z,480
2017-09-05T05:53:52.398Z,496
2017-09-05T05:55:01.059Z,508
2017-09-05T05:56:09.719Z,500
2017-09-05T05:57:19.004Z,500
2017-09-05T05:58:27.806Z,588
2017-09-05T05:59:37.102Z,744
2017-09-05T06:00:46.435Z,808
2017-09-05T06:01:55.400Z,776
2017-09-05T06:03:04.698Z,744
2017-09-05T06:04:13.700Z,712
2017-09-05T06:05:22.671Z,720
2017-09-05T06:06:31.327Z,672
2017-09-05T06:07:40.983Z,660
2017-09-05T06:08:49.952Z,680
2017-09-05T06:09:59.791Z,696
2017-09-05T06:11:09.377Z,780
2017-09-05T06:12:18.408Z,804
2017-09-05T06:13:27.824Z,780
2017-09-05T06:14:36.902Z,812
2017-09-05T06:15:48.433Z,920
2017-09-05T06:16:57.222Z,988
2017-09-05T06:18:06.512Z,1004
2017-09-05T06:19:15.793Z,1008
2017-09-05T06:20:24.754Z,988
2017-09-05T06:21:33.497Z,884
2017-09-05T06:22:42.473Z,876
2017-09-05T06:23:51.436Z,892
2017-09-05T06:25:00.393Z,980
2017-09-05T06:26:09.037Z,1060
2017-09-05T06:27:17.794Z,1152
2017-09-05T06:28:26.764Z,1292
2017-09-05T06:29:35.417Z,1556
2017-09-05T06:30:44.374Z,1788
2017-09-05T06:31:53.656Z,1844
2017-09-05T06:33:02.449Z,1908
2017-09-05T06:34:11.415Z,2020
2017-09-05T06:35:20.077Z,2036
2017-09-05T06:36:29.404Z,1984
2017-09-05T06:37:38.054Z,1972
2017-09-05T06:38:47.156Z,2036
2017-09-05T06:39:55.807Z,2252
2017-09-05T06:41:04.766Z,2484
2017-09-05T06:42:14.340Z,2528
2017-09-05T06:43:23.962Z,2532
2017-09-05T06:44:32.715Z,2436
2017-09-05T06:45:41.705Z,2476
2017-09-05T06:46:50.715Z,2656
2017-09-05T06:47:59.995Z,2704
2017-09-05T06:49:09.276Z,2536
2017-09-05T06:50:18.663Z,2252
2017-09-05T06:51:27.685Z,2104
2017-09-05T06:52:36.964Z,2092
2017-09-05T06:53:46.317Z,2140
2017-09-05T06:54:54.983Z,2056
2017-09-05T06:56:04.361Z,1976
2017-09-05T06:57:13.324Z,1944
2017-09-05T06:58:22.281Z,1992
2017-09-05T06:59:30.948Z,2152
2017-09-05T07:00:40.221Z,2400
2017-09-05T07:01:49.838Z,2668
2017-09-05T07:03:00.530Z,2700
2017-09-05T07:04:09.518Z,2500
2017-09-05T07:05:19.248Z,2212
2017-09-05T07:06:28.704Z,2020
2017-09-05T07:07:38.137Z,1828
2017-09-05T07:08:47.191Z,1708
2017-09-05T07:09:56.149Z,1524
2017-09-05T07:11:05.142Z,1224
2017-09-05T07:12:13.795Z,928
2017-09-05T07:13:23.228Z,864
2017-09-05T07:14:32.184Z,900
2017-09-05T07:15:41.467Z,936
2017-09-05T07:16:50.428Z,1048
2017-09-05T07:17:59.381Z,1304
2017-09-05T07:19:08.400Z,1780
2017-09-05T07:20:17.371Z,2184
2017-09-05T07:21:26.362Z,2544
2017-09-05T07:22:35.322Z,2608
2017-09-05T07:23:44.309Z,2512
2017-09-05T07:24:53.392Z,2312
2017-09-05T07:26:02.045Z,2168
2017-09-05T07:27:11.003Z,2268
2017-09-05T07:28:20.282Z,2792
2017-09-05T07:29:29.879Z,2972
2017-09-05T07:30:39.216Z,3000
2017-09-05T07:31:48.187Z,3040
2017-09-05T07:32:56.846Z,3112
2017-09-05T07:34:06.141Z,3208
2017-09-05T07:35:15.094Z,3388
2017-09-05T07:36:23.892Z,3564
2017-09-05T07:37:32.531Z,3524
2017-09-05T07:38:41.510Z,3496
2017-09-05T07:39:50.158Z,3108
2017-09-05T07:40:59.447Z,2668
2017-09-05T07:42:08.421Z,2292
2017-09-05T07:43:18.010Z,2180
2017-09-05T07:44:27.284Z,2416
2017-09-05T07:45:36.919Z,2772
2017-09-05T07:46:46.191Z,3440
2017-09-05T07:47:55.316Z,3788
2017-09-05T07:49:04.282Z,3952
2017-09-05T07:50:12.923Z,4128
2017-09-05T07:51:21.881Z,4100
2017-09-05T07:52:30.835Z,3924
2017-09-05T07:53:39.890Z,3356
2017-09-05T07:54:48.845Z,3076
2017-09-05T07:55:58.133Z,2860
2017-09-05T07:57:07.718Z,3136
2017-09-05T07:58:16.994Z,3596
2017-09-05T07:59:26.012Z,3988
2017-09-05T08:00:35.290Z,3668
2017-09-05T08:01:44.255Z,3536
2017-09-05T08:02:53.226Z,4220
2017-09-05T08:04:02.512Z,4412
2017-09-05T08:05:11.895Z,4296
2017-09-05T08:06:20.550Z,4404
2017-09-05T08:07:29.835Z,4692
2017-09-05T08:08:38.865Z,5200
2017-09-05T08:09:47.827Z,5440
2017-09-05T08:10:56.811Z,5680
2017-09-05T08:12:05.781Z,5748
2017-09-05T08:13:14.469Z,5916
2017-09-05T08:14:23.102Z,5652
2017-09-05T08:15:31.756Z,5168
2017-09-05T08:16:41.500Z,4828
2017-09-05T08:17:51.100Z,4384
2017-09-05T08:19:00.388Z,4304
2017-09-05T08:20:09.053Z,4608
2017-09-05T08:21:18.014Z,4100
2017-09-05T08:22:27.454Z,3744
2017-09-05T08:23:36.441Z,5124
2017-09-05T08:24:45.136Z,5308
2017-09-05T08:25:54.105Z,4784
2017-09-05T08:27:02.781Z,4464
2017-09-05T08:28:12.197Z,3844
2017-09-05T08:29:21.176Z,4020
2017-09-05T08:30:30.140Z,4164
2017-09-05T08:31:38.803Z,4540
2017-09-05T08:32:47.463Z,4296
2017-09-05T08:33:56.592Z,3244
2017-09-05T08:35:05.244Z,3056
2017-09-05T08:36:14.224Z,2920
2017-09-05T08:37:23.186Z,2904
2017-09-05T08:38:32.150Z,3584
2017-09-05T08:39:41.266Z,4052
2017-09-05T08:40:49.924Z,4104
2017-09-05T08:41:58.905Z,4552
2017-09-05T08:43:07.879Z,4800
2017-09-05T08:44:16.872Z,4264
2017-09-05T08:45:25.989Z,4620
2017-09-05T08:46:34.972Z,5344
2017-09-05T08:47:44.259Z,5392
2017-09-05T08:48:53.219Z,4812
2017-09-05T08:50:01.870Z,4516
2017-09-05T08:51:10.523Z,3868
2017-09-05T08:52:20.114Z,3352
2017-09-05T08:53:28.768Z,3012
2017-09-05T08:54:38.072Z,2704
2017-09-05T08:55:47.057Z,2440
2017-09-05T08:56:55.879Z,2072
2017-09-05T08:58:05.174Z,1924
2017-09-05T08:59:14.135Z,1772
2017-09-05T09:00:23.726Z,1692
2017-09-05T09:01:33.322Z,1612
2017-09-05T09:02:42.350Z,1568
2017-09-05T09:03:51.642Z,1564
2017-09-05T09:05:00.609Z,1356
2017-09-05T09:06:09.575Z,1368
2017-09-05T09:07:18.548Z,1368
2017-09-05T09:08:27.721Z,1368
2017-09-05T09:09:36.712Z,1348
2017-09-05T09:10:46.316Z,1324
2017-09-05T09:11:54.978Z,1304
2017-09-05T09:13:04.621Z,1288
2017-09-05T09:14:13.997Z,1256
2017-09-05T09:15:22.649Z,1236
2017-09-05T09:16:31.621Z,1264
2017-09-05T09:17:40.273Z,1208
2017-09-05T09:20:30.935Z,1816
2017-09-05T09:21:39.587Z,2152
2017-09-05T09:22:48.570Z,2472
2017-09-05T09:23:57.852Z,2648
2017-09-05T09:25:07.146Z,2436
2017-09-05T09:26:16.430Z,2408
2017-09-05T09:27:25.699Z,2108
2017-09-05T09:28:34.658Z,1660
2017-09-05T09:29:43.326Z,1400
2017-09-05T09:30:52.614Z,1228
2017-09-05T09:32:01.591Z,1128
2017-09-05T09:33:10.609Z,1104
2017-09-05T09:34:19.566Z,1088
2017-09-05T09:35:28.546Z,1092
2017-09-05T09:36:37.580Z,1080
2017-09-05T09:37:46.552Z,1088
2017-09-05T09:38:55.518Z,1084
2017-09-05T09:40:04.180Z,1072
2017-09-05T09:41:13.148Z,1108
2017-09-05T09:42:21.878Z,1152
2017-09-05T09:43:31.459Z,1192
2017-09-05T09:44:40.108Z,1252
2017-09-05T09:45:49.696Z,1200
2017-09-05T09:46:58.662Z,1416
2017-09-05T09:48:07.637Z,1492
2017-09-05T09:49:16.672Z,1588
2017-09-05T09:50:25.648Z,1792
2017-09-05T09:51:35.562Z,2244
2017-09-05T09:52:44.525Z,2276
2017-09-05T09:53:53.491Z,2128
2017-09-05T09:55:02.483Z,1580
2017-09-05T09:56:12.120Z,1704
2017-09-05T09:57:21.080Z,1772
2017-09-05T09:58:30.685Z,1452
2017-09-05T09:59:39.970Z,1164
2017-09-05T10:00:48.940Z,1360
2017-09-05T10:01:58.232Z,1712
2017-09-05T10:03:07.202Z,1864
2017-09-05T10:04:15.862Z,1992
2017-09-05T10:05:25.812Z,1632
2017-09-05T10:06:35.131Z,1440
2017-09-05T10:07:44.452Z,1252
2017-09-05T10:08:53.439Z,1228
2017-09-05T10:10:02.398Z,1636
2017-09-05T10:11:11.366Z,1492
2017-09-05T10:12:20.031Z,1116
2017-09-05T10:13:29.007Z,972
2017-09-05T10:14:38.296Z,952
2017-09-05T10:15:47.584Z,928
2017-09-05T10:16:56.874Z,908
2017-09-05T10:18:06.152Z,888
2017-09-05T10:19:14.810Z,884
2017-09-05T10:20:23.774Z,880
2017-09-05T10:21:33.066Z,868
2017-09-05T10:22:42.367Z,860
2017-09-05T10:23:51.648Z,860
2017-09-05T10:25:00.615Z,828
2017-09-05T10:26:10.211Z,812
2017-09-05T10:27:19.480Z,984
2017-09-05T10:28:29.082Z,1400
2017-09-05T10:29:38.386Z,1584
2017-09-05T10:30:47.671Z,1396
2017-09-05T10:31:57.016Z,1496
2017-09-05T10:33:05.978Z,1520
2017-09-05T10:34:15.256Z,1832
2017-09-05T10:35:24.540Z,2024
2017-09-05T10:36:33.531Z,2116
2017-09-05T10:37:42.177Z,2476
2017-09-05T10:38:51.142Z,2564
2017-09-05T10:39:59.963Z,2464
2017-09-05T10:41:08.956Z,2156
2017-09-05T10:42:17.613Z,2292
2017-09-05T10:43:26.599Z,2528
2017-09-05T10:44:36.213Z,2556
2017-09-05T10:45:45.195Z,2360
2017-09-05T10:46:54.161Z,2296
2017-09-05T10:48:02.825Z,2560
2017-09-05T10:49:11.493Z,2852
2017-09-05T10:50:20.472Z,3032
2017-09-05T10:51:29.468Z,3176
2017-09-05T10:52:38.430Z,3340
2017-09-05T10:53:48.047Z,3292
2017-09-05T10:54:57.019Z,3204
2017-09-05T10:56:05.696Z,3016
2017-09-05T10:57:14.736Z,2924
2017-09-05T10:58:24.028Z,2808
2017-09-05T10:59:33.304Z,2804
2017-09-05T11:00:42.914Z,2872
2017-09-05T11:01:52.234Z,2828
2017-09-05T11:03:01.544Z,2784
2017-09-05T11:04:11.145Z,2772
2017-09-05T11:05:19.800Z,2576
2017-09-05T11:06:29.075Z,2524
2017-09-05T11:07:38.035Z,2308
2017-09-05T11:08:47.678Z,2056
2017-09-05T11:09:57.592Z,1816
2017-09-05T11:11:06.555Z,1664
2017-09-05T11:12:15.842Z,1548
2017-09-05T11:13:25.448Z,1440
2017-09-05T11:14:34.476Z,1424
2017-09-05T11:15:43.759Z,1388
2017-09-05T11:16:52.751Z,1360
2017-09-05T11:18:02.053Z,1424
2017-09-05T11:19:11.021Z,1564
2017-09-05T11:20:19.676Z,1704
2017-09-05T11:21:28.967Z,1896
2017-09-05T11:22:37.940Z,2084
2017-09-05T11:23:46.592Z,2056
2017-09-05T11:24:55.878Z,1736
2017-09-05T11:26:04.848Z,1520
2017-09-05T11:27:13.809Z,1484
2017-09-05T11:28:22.772Z,1548
2017-09-05T11:29:31.423Z,1600
2017-09-05T11:30:40.724Z,1592
2017-09-05T11:31:49.692Z,1624
2017-09-05T11:32:58.354Z,1596
2017-09-05T11:34:07.632Z,1544
2017-09-05T11:35:16.923Z,1512
2017-09-05T11:36:25.589Z,1584
2017-09-05T11:37:34.870Z,1784
2017-09-05T11:38:43.835Z,1796
2017-09-05T11:39:52.827Z,1620
2017-09-05T11:41:01.801Z,1460
2017-09-05T11:42:11.086Z,1356
2017-09-05T11:43:20.382Z,1444
2017-09-05T11:44:29.670Z,1508
2017-09-05T11:45:38.632Z,1540
2017-09-05T11:46:47.593Z,1620
2017-09-05T11:47:56.565Z,1436
2017-09-05T11:49:05.836Z,1380
2017-09-05T11:50:14.502Z,1232
2017-09-05T11:51:23.807Z,1008
2017-09-05T11:52:32.462Z,820
2017-09-05T11:53:41.753Z,836
2017-09-05T11:54:50.717Z,852
2017-09-05T11:55:59.694Z,720
2017-09-05T11:57:08.654Z,624
2017-09-05T11:58:17.627Z,592
2017-09-05T11:59:26.586Z,580
2017-09-05T12:00:35.239Z,564
2017-09-05T12:01:44.537Z,692
2017-09-05T12:02:53.504Z,780
2017-09-05T12:04:02.178Z,840
2017-09-05T12:05:11.145Z,1012
2017-09-05T12:06:20.428Z,1440
2017-09-05T12:07:29.714Z,1616
2017-09-05T12:08:38.679Z,1852
2017-09-05T12:09:47.348Z,1932
2017-09-05T12:10:56.320Z,1800
2017-09-05T12:12:05.918Z,1808
2017-09-05T12:13:15.211Z,1800
2017-09-05T12:14:25.139Z,1628
2017-09-05T12:15:34.116Z,1308
2017-09-05T12:16:43.709Z,1132
2017-09-05T12:17:53.314Z,1320
2017-09-05T12:19:02.291Z,1556
2017-09-05T12:20:11.878Z,1448
2017-09-05T12:21:20.845Z,1132
2017-09-05T12:22:29.812Z,912
2017-09-05T12:23:38.925Z,864
2017-09-05T12:24:47.575Z,896
2017-09-05T12:25:56.557Z,712
2017-09-05T12:27:05.538Z,712
2017-09-05T12:28:14.837Z,652
2017-09-05T12:29:23.487Z,600
2017-09-05T12:30:32.204Z,496
2017-09-05T12:31:41.180Z,396
2017-09-05T12:32:50.211Z,468
2017-09-05T12:33:58.879Z,668
2017-09-05T12:35:07.851Z,708
2017-09-05T12:36:16.818Z,588
2017-09-05T12:37:26.105Z,428
2017-09-05T12:38:34.754Z,328
2017-09-05T12:39:44.043Z,324
2017-09-05T12:40:53.704Z,340
2017-09-05T12:42:03.617Z,368
2017-09-05T12:43:12.599Z,356
2017-09-05T12:44:21.885Z,304
2017-09-05T12:45:30.865Z,252
2017-09-05T12:46:40.147Z,232
2017-09-05T12:47:49.436Z,212
2017-09-05T12:48:58.103Z,224
2017-09-05T12:50:07.401Z,224
2017-09-05T12:51:17.000Z,224
2017-09-05T12:52:25.679Z,212
2017-09-05T12:53:34.664Z,188
2017-09-05T12:54:44.253Z,192
2017-09-05T12:55:53.223Z,236
2017-09-05T12:57:02.258Z,264
2017-09-05T12:58:10.910Z,292
2017-09-05T12:59:19.877Z,296
2017-09-05T13:00:28.535Z,372
2017-09-05T13:01:37.206Z,392
2017-09-05T13:02:45.870Z,404
2017-09-05T13:03:54.517Z,416
2017-09-05T13:05:03.803Z,432
2017-09-05T13:06:13.094Z,448
2017-09-05T13:07:21.754Z,476
2017-09-05T13:08:30.414Z,512
2017-09-05T13:09:39.406Z,528
2017-09-05T13:10:48.408Z,576
2017-09-05T13:11:57.692Z,628
2017-09-05T13:13:07.327Z,668
2017-09-05T13:14:16.296Z,704
2017-09-05T13:15:25.261Z,740
2017-09-05T13:16:33.922Z,768
2017-09-05T13:17:42.898Z,876
2017-09-05T13:18:52.176Z,1004
2017-09-05T13:20:01.156Z,1152
2017-09-05T13:21:10.432Z,1252
2017-09-05T13:22:19.400Z,1452
2017-09-05T13:23:28.991Z,1620
2017-09-05T13:24:37.974Z,1820
2017-09-05T13:25:46.634Z,2064
2017-09-05T13:26:55.912Z,2260
2017-09-05T13:28:05.216Z,2368
2017-09-05T13:29:13.881Z,2420
2017-09-05T13:30:23.188Z,2452
2017-09-05T13:31:33.132Z,2364
2017-09-05T13:32:42.410Z,2220
2017-09-05T13:33:51.695Z,2068
2017-09-05T13:35:00.656Z,1876
2017-09-05T13:36:09.650Z,1880
2017-09-05T13:37:18.405Z,1924
2017-09-05T13:38:27.394Z,1896
2017-09-05T13:39:36.525Z,1832
2017-09-05T13:40:45.555Z,1940
2017-09-05T13:41:54.854Z,2024
2017-09-05T13:43:04.150Z,2132
2017-09-05T13:44:13.121Z,2212
2017-09-05T13:45:22.401Z,2208
2017-09-05T13:46:31.398Z,1956
2017-09-05T13:47:40.429Z,1668
2017-09-05T13:48:49.419Z,1584
2017-09-05T13:49:58.731Z,1784
2017-09-05T13:51:07.381Z,1872
2017-09-05T13:52:16.363Z,1688
2017-09-05T13:53:25.149Z,1588
2017-09-05T13:54:34.452Z,1580
2017-09-05T13:55:44.424Z,1576
2017-09-05T13:56:53.426Z,1556
2017-09-05T13:58:02.098Z,1464
2017-09-05T13:59:11.385Z,1392
2017-09-05T14:00:20.986Z,1324
2017-09-05T14:01:29.648Z,1276
2017-09-05T14:02:38.622Z,1236
2017-09-05T14:03:47.578Z,1176
2017-09-05T14:04:56.860Z,1108
2017-09-05T14:06:06.154Z,1092
2017-09-05T14:07:14.810Z,1032
2017-09-05T14:08:23.479Z,940
2017-09-05T14:09:33.181Z,904
2017-09-05T14:10:42.469Z,872
2017-09-05T14:11:52.230Z,876
2017-09-05T14:13:01.538Z,840
2017-09-05T14:14:10.658Z,744
2017-09-05T14:15:19.622Z,688
2017-09-05T14:16:28.899Z,672
2017-09-05T14:17:38.178Z,652
2017-09-05T14:18:47.767Z,616
2017-09-05T14:19:56.451Z,604
2017-09-05T14:21:05.426Z,592
2017-09-05T14:22:14.834Z,588
2017-09-05T14:23:23.800Z,596
2017-09-05T14:24:33.440Z,608
2017-09-05T14:25:42.096Z,684
2017-09-05T14:26:51.811Z,784
2017-09-05T14:28:00.782Z,836
2017-09-05T14:29:10.751Z,788
2017-09-05T14:30:19.749Z,820
2017-09-05T14:31:29.395Z,784
2017-09-05T14:32:38.406Z,812
2017-09-05T14:33:47.373Z,980
2017-09-05T14:34:56.348Z,1120
2017-09-05T14:36:06.033Z,1172
2017-09-05T14:37:14.692Z,1140
2017-09-05T14:38:23.478Z,1104
2017-09-05T14:39:32.841Z,1128
2017-09-05T14:40:41.896Z,1116
2017-09-05T14:41:51.583Z,1084
2017-09-05T14:43:00.601Z,1076
2017-09-05T14:44:09.589Z,1108
2017-09-05T14:45:18.399Z,1108
2017-09-05T14:46:27.715Z,1116
2017-09-05T14:47:37.005Z,1172
2017-09-05T14:48:45.717Z,1348
2017-09-05T14:49:55.384Z,1524
2017-09-05T14:51:04.969Z,1660
2017-09-05T14:52:14.359Z,1680
2017-09-05T14:53:24.194Z,1532
2017-09-05T14:54:33.219Z,1384
2017-09-05T14:55:42.195Z,1344
2017-09-05T14:56:50.894Z,1316
2017-09-05T14:58:00.450Z,1192
2017-09-05T14:59:09.511Z,1152
2017-09-05T15:00:18.483Z,1252
2017-09-05T15:01:27.622Z,1196
2017-09-05T15:02:37.295Z,1020
2017-09-05T15:03:46.282Z,780
2017-09-05T15:04:54.936Z,728
2017-09-05T15:06:03.911Z,756
2017-09-05T15:07:12.901Z,744
2017-09-05T15:08:22.489Z,832
2017-09-05T15:09:31.461Z,972
2017-09-05T15:10:40.431Z,936
2017-09-05T15:11:49.391Z,864
2017-09-05T15:12:58.664Z,868
2017-09-05T15:14:08.922Z,772
2017-09-05T15:15:17.853Z,624
2017-09-05T15:16:26.845Z,544
2017-09-05T15:17:36.464Z,540
2017-09-05T15:18:46.049Z,544
2017-09-05T15:19:55.323Z,668
2017-09-05T15:21:04.602Z,684
2017-09-05T15:22:13.571Z,636
2017-09-05T15:23:22.545Z,652
2017-09-05T15:24:31.516Z,760
2017-09-05T15:25:41.111Z,876
2017-09-05T15:26:50.080Z,1100
2017-09-05T15:27:59.380Z,1340
2017-09-05T15:29:08.034Z,1472
2017-09-05T15:30:17.306Z,1500
2017-09-05T15:31:26.584Z,1524
2017-09-05T15:32:35.868Z,1508
2017-09-05T15:33:45.138Z,1516
2017-09-05T15:34:53.799Z,1488
2017-09-05T15:36:03.382Z,1456
2017-09-05T15:37:12.656Z,1404
2017-09-05T15:38:21.952Z,1356
2017-09-05T15:39:30.598Z,1248
2017-09-05T15:40:39.552Z,1116
2017-09-05T15:41:48.517Z,968
2017-09-05T15:42:58.117Z,844
2017-09-05T15:44:07.401Z,768
2017-09-05T15:45:16.676Z,644
2017-09-05T15:46:25.652Z,544
2017-09-05T15:47:34.618Z,500
2017-09-05T15:48:44.216Z,508
2017-09-05T15:49:53.183Z,476
2017-09-05T15:51:02.149Z,428
2017-09-05T15:52:11.438Z,412
2017-09-05T15:53:20.419Z,396
2017-09-05T15:54:29.725Z,384
2017-09-05T15:55:38.691Z,376
2017-09-05T15:56:47.980Z,388
2017-09-05T15:57:56.951Z,436
2017-09-05T15:59:05.978Z,436